Time;durP1;ratioP1;P1;durP2;ratioP2;P2;SDS_P1;SDS_P2;PMS_P1;PMS_P2;Temp;Humidity;BMP_temperature;BMP_pressure;BME280_temperature;BME280_humidity;BME280_pressure;Samples;Min_cycle;Max_cycle;Signal;HPM_P1;HPM_P2
2023/12/12 00:00:11;;;;;;;31.50;7.60;;;10.40;99.90;;;;;;5030888;28;20623;-82
2023/12/12 00:02:37;;;;;;;30.53;7.40;;;10.40;99.90;;;;;;5032348;28;20171;-83
2023/12/12 00:05:03;;;;;;;26.20;8.37;;;10.40;99.90;;;;;;5030170;28;20553;-82
2023/12/12 00:07:29;;;;;;;29.43;8.13;;;10.40;99.90;;;;;;5030722;28;20205;-82
2023/12/12 00:09:54;;;;;;;28.47;6.80;;;10.50;99.90;;;;;;5030985;28;20189;-82
2023/12/12 00:12:20;;;;;;;30.70;7.93;;;10.60;99.90;;;;;;5030723;28;20690;-81
2023/12/12 00:14:46;;;;;;;35.23;8.37;;;10.60;99.90;;;;;;5030278;28;20181;-82
2023/12/12 00:17:11;;;;;;;25.90;7.73;;;10.60;99.90;;;;;;5030405;28;20251;-83
2023/12/12 00:19:42;;;;;;;32.53;9.43;;;10.50;99.90;;;;;;5032443;28;20246;-82
2023/12/12 00:22:09;;;;;;;24.67;7.63;;;10.40;99.90;;;;;;5031547;28;20167;-81
2023/12/12 00:24:35;;;;;;;26.63;8.30;;;10.40;99.90;;;;;;5030950;28;20652;-82
2023/12/12 00:27:00;;;;;;;29.10;8.27;;;10.40;99.90;;;;;;5030390;28;20203;-83
2023/12/12 00:29:26;;;;;;;31.37;9.27;;;10.40;99.90;;;;;;5031156;28;20198;-81
2023/12/12 00:31:52;;;;;;;26.80;8.03;;;10.40;99.90;;;;;;5031138;28;20689;-83
2023/12/12 00:34:17;;;;;;;30.73;8.80;;;10.50;99.90;;;;;;5033048;28;20632;-82
2023/12/12 00:36:43;;;;;;;27.97;7.73;;;10.40;99.90;;;;;;5035289;28;20176;-82
2023/12/12 00:39:09;;;;;;;25.53;8.77;;;10.40;99.90;;;;;;5034497;28;20530;-81
2023/12/12 00:41:36;;;;;;;26.07;7.80;;;10.40;99.90;;;;;;5033747;28;20174;-82
2023/12/12 00:44:01;;;;;;;25.97;8.10;;;10.40;99.90;;;;;;5034550;28;20173;-82
2023/12/12 00:46:27;;;;;;;24.23;7.27;;;10.30;99.90;;;;;;5034794;28;20253;-81
2023/12/12 00:48:53;;;;;;;27.97;8.40;;;10.30;99.90;;;;;;5034932;28;20675;-82
2023/12/12 00:51:18;;;;;;;30.80;7.40;;;10.30;99.90;;;;;;5033302;28;20638;-82
2023/12/12 00:53:44;;;;;;;24.57;7.83;;;10.40;99.90;;;;;;5034158;28;20653;-82
2023/12/12 00:56:10;;;;;;;26.37;8.00;;;10.50;99.90;;;;;;5033850;28;20260;-82
2023/12/12 00:58:35;;;;;;;27.63;7.50;;;10.40;99.90;;;;;;5035978;28;20170;-82
2023/12/12 01:01:01;;;;;;;26.63;7.63;;;10.40;99.90;;;;;;5033484;28;20186;-81
2023/12/12 01:03:27;;;;;;;26.83;7.70;;;10.40;99.90;;;;;;5034427;28;20178;-84
2023/12/12 01:05:53;;;;;;;25.03;7.20;;;10.40;99.90;;;;;;5032990;28;20178;-81
2023/12/12 01:08:18;;;;;;;23.23;7.67;;;10.40;99.90;;;;;;5032738;28;20695;-81
2023/12/12 01:10:44;;;;;;;27.27;6.87;;;10.50;99.90;;;;;;5033559;28;20201;-81
2023/12/12 01:13:10;;;;;;;24.43;7.30;;;10.40;99.90;;;;;;5034238;28;20182;-82
2023/12/12 01:15:35;;;;;;;30.17;7.33;;;10.50;99.90;;;;;;5033789;28;20625;-83
2023/12/12 01:18:01;;;;;;;25.27;7.00;;;10.60;99.90;;;;;;5034523;28;20201;-81
2023/12/12 01:20:26;;;;;;;26.80;7.20;;;10.50;99.90;;;;;;5035991;28;20559;-81
2023/12/12 01:22:52;;;;;;;27.90;7.17;;;10.50;99.90;;;;;;5034123;28;20650;-82
2023/12/12 01:25:18;;;;;;;27.17;7.20;;;10.40;99.90;;;;;;5034131;28;20178;-82
2023/12/12 01:27:44;;;;;;;26.37;7.53;;;10.40;99.90;;;;;;5033941;28;20213;-81
2023/12/12 01:30:10;;;;;;;34.37;7.10;;;10.40;99.90;;;;;;5034033;28;20174;-82
2023/12/12 01:32:36;;;;;;;25.03;7.23;;;10.60;99.90;;;;;;5034065;28;20194;-81
2023/12/12 01:35:02;;;;;;;20.93;6.97;;;10.60;99.90;;;;;;5033509;28;20266;-80
2023/12/12 01:37:27;;;;;;;25.60;6.77;;;10.60;99.90;;;;;;5033891;28;20232;-82
2023/12/12 01:39:53;;;;;;;25.37;6.53;;;10.50;99.90;;;;;;5033590;28;20233;-80
2023/12/12 01:42:19;;;;;;;23.13;6.37;;;10.50;99.90;;;;;;5034022;28;20275;-82
2023/12/12 01:44:44;;;;;;;24.77;6.67;;;10.50;99.90;;;;;;5032813;28;20241;-81
2023/12/12 01:47:11;;;;;;;25.13;6.47;;;10.50;99.90;;;;;;5032835;28;20194;-82
2023/12/12 01:49:37;;;;;;;27.90;6.57;;;10.60;99.90;;;;;;5033202;28;20186;-81
2023/12/12 01:52:03;;;;;;;25.90;7.43;;;10.60;99.90;;;;;;5032661;28;20179;-82
2023/12/12 01:54:29;;;;;;;22.67;6.20;;;10.50;99.90;;;;;;5033066;28;20184;-81
2023/12/12 01:56:56;;;;;;;22.90;6.17;;;10.50;99.90;;;;;;5033821;28;20179;-80
2023/12/12 01:59:22;;;;;;;21.67;6.07;;;10.50;99.90;;;;;;5033302;28;20175;-81
2023/12/12 02:01:49;;;;;;;20.53;6.90;;;10.50;99.90;;;;;;5032597;28;20208;-81
2023/12/12 02:04:16;;;;;;;26.03;6.37;;;10.50;99.90;;;;;;5032473;28;20655;-82
2023/12/12 02:06:44;;;;;;;20.57;6.63;;;10.50;99.90;;;;;;5033401;28;20163;-84
2023/12/12 02:09:10;;;;;;;27.53;7.80;;;10.60;99.90;;;;;;5032836;28;20219;-82
2023/12/12 02:11:36;;;;;;;24.23;7.50;;;10.80;99.90;;;;;;5033489;28;20641;-82
2023/12/12 02:14:02;;;;;;;17.73;5.57;;;10.90;99.90;;;;;;5032615;28;20284;-82
2023/12/12 02:16:27;;;;;;;24.27;7.03;;;10.90;99.90;;;;;;5032473;28;20175;-81
2023/12/12 02:18:53;;;;;;;21.60;7.40;;;11.00;99.90;;;;;;5032991;28;20267;-81
2023/12/12 02:21:20;;;;;;;26.53;6.97;;;10.90;99.90;;;;;;5031865;28;20185;-82
2023/12/12 02:23:49;;;;;;;24.37;7.13;;;10.80;99.90;;;;;;5032891;28;20320;-82
2023/12/12 02:26:16;;;;;;;23.43;6.80;;;10.70;99.90;;;;;;5032535;28;20213;-82
2023/12/12 02:28:42;;;;;;;25.43;6.93;;;10.70;99.90;;;;;;5032127;28;20214;-82
2023/12/12 02:31:09;;;;;;;24.57;6.43;;;10.80;99.90;;;;;;5034026;28;20165;-81
2023/12/12 02:33:34;;;;;;;24.80;6.60;;;10.80;99.90;;;;;;5033302;28;20175;-81
2023/12/12 02:36:00;;;;;;;22.80;6.80;;;10.70;99.90;;;;;;5031296;28;20531;-81
2023/12/12 02:38:26;;;;;;;22.13;5.83;;;10.70;99.90;;;;;;5031259;28;20561;-81
2023/12/12 02:40:51;;;;;;;20.00;5.97;;;10.70;99.90;;;;;;5032727;28;20541;-83
2023/12/12 02:43:17;;;;;;;23.00;6.40;;;10.70;99.90;;;;;;5032780;28;20179;-81
2023/12/12 02:45:43;;;;;;;20.50;5.70;;;10.70;99.90;;;;;;5031787;28;20253;-81
2023/12/12 02:48:09;;;;;;;26.80;6.07;;;10.70;99.90;;;;;;5030279;28;20211;-81
2023/12/12 02:50:34;;;;;;;21.20;6.17;;;10.70;99.90;;;;;;5033284;28;20180;-82
2023/12/12 02:53:00;;;;;;;18.53;5.07;;;10.70;99.90;;;;;;5031343;28;20176;-81
2023/12/12 02:55:26;;;;;;;20.73;5.63;;;10.70;99.90;;;;;;5033818;28;20223;-81
2023/12/12 02:57:51;;;;;;;21.73;5.90;;;10.60;99.90;;;;;;5030478;28;20691;-81
2023/12/12 03:00:17;;;;;;;23.93;6.27;;;10.60;99.90;;;;;;5031701;28;20174;-85
2023/12/12 03:02:43;;;;;;;25.33;6.53;;;10.60;99.90;;;;;;5031641;28;20647;-82
2023/12/12 03:05:08;;;;;;;22.40;5.83;;;10.70;99.90;;;;;;5032057;28;20217;-81
2023/12/12 03:07:34;;;;;;;19.43;4.97;;;10.80;99.90;;;;;;5032006;28;20206;-81
2023/12/12 03:10:00;;;;;;;17.97;5.53;;;10.80;99.90;;;;;;5031385;28;20246;-81
2023/12/12 03:12:26;;;;;;;22.20;5.50;;;10.80;99.90;;;;;;5032353;28;20187;-81
2023/12/12 03:14:51;;;;;;;24.33;6.27;;;10.70;99.90;;;;;;5031145;28;20205;-81
2023/12/12 03:17:17;;;;;;;21.93;5.37;;;10.80;99.90;;;;;;5031851;28;20171;-82
2023/12/12 03:19:43;;;;;;;20.63;5.87;;;10.70;99.90;;;;;;5032986;28;20647;-81
2023/12/12 03:22:08;;;;;;;17.70;5.23;;;10.70;99.90;;;;;;5030801;28;20696;-83
2023/12/12 03:24:34;;;;;;;18.30;5.23;;;10.70;99.90;;;;;;5033566;28;20406;-82
2023/12/12 03:26:59;;;;;;;20.43;5.63;;;10.60;99.90;;;;;;5031302;28;20645;-81
2023/12/12 03:29:25;;;;;;;19.60;5.27;;;10.60;99.90;;;;;;5031130;28;20579;-81
2023/12/12 03:31:51;;;;;;;23.50;5.33;;;10.60;99.90;;;;;;5031264;28;20175;-82
2023/12/12 03:34:17;;;;;;;19.43;5.13;;;10.50;99.90;;;;;;5030618;28;20201;-81
2023/12/12 03:36:43;;;;;;;22.40;5.23;;;10.50;99.90;;;;;;5031635;28;20172;-82
2023/12/12 03:39:10;;;;;;;19.77;5.87;;;10.50;99.90;;;;;;5029585;28;20182;-83
2023/12/12 03:41:36;;;;;;;21.23;5.27;;;10.50;99.90;;;;;;5031762;28;20224;-81
2023/12/12 03:44:02;;;;;;;21.77;5.60;;;10.40;99.90;;;;;;5031235;28;20713;-82
2023/12/12 03:46:27;;;;;;;20.37;5.60;;;10.40;99.90;;;;;;5031608;28;20270;-83
2023/12/12 03:48:56;;;;;;;17.27;5.67;;;10.30;99.90;;;;;;5030464;28;20221;-82
2023/12/12 03:51:21;;;;;;;17.27;5.50;;;10.20;99.90;;;;;;5031485;28;20174;-82
2023/12/12 03:53:47;;;;;;;24.00;6.67;;;10.10;99.90;;;;;;5031678;28;20187;-81
2023/12/12 03:56:13;;;;;;;21.57;5.60;;;10.10;99.90;;;;;;5032537;28;20639;-80
2023/12/12 03:58:38;;;;;;;21.83;5.47;;;10.00;99.90;;;;;;5031763;28;20269;-81
2023/12/12 04:01:06;;;;;;;23.67;5.23;;;10.00;99.90;;;;;;5031874;28;20230;-81
2023/12/12 04:03:32;;;;;;;23.83;5.63;;;9.90;99.90;;;;;;5029458;28;20188;-81
2023/12/12 04:06:01;;;;;;;19.13;4.80;;;9.90;99.90;;;;;;5030587;28;20263;-82
2023/12/12 04:08:27;;;;;;;22.50;5.73;;;10.00;99.90;;;;;;5029718;28;20214;-81
2023/12/12 04:10:53;;;;;;;24.33;5.60;;;10.00;99.90;;;;;;5032050;28;20649;-80
2023/12/12 04:13:18;;;;;;;21.10;6.00;;;9.90;99.90;;;;;;5031268;28;20217;-80
2023/12/12 04:15:44;;;;;;;16.37;5.07;;;9.90;99.90;;;;;;5030374;28;20541;-80
2023/12/12 04:18:10;;;;;;;19.97;5.27;;;9.90;99.90;;;;;;5030713;28;20541;-81
2023/12/12 04:20:35;;;;;;;17.60;5.17;;;9.90;99.90;;;;;;5032061;28;20236;-82
2023/12/12 04:23:01;;;;;;;17.70;5.00;;;9.90;99.90;;;;;;5030007;28;20182;-81
2023/12/12 04:25:27;;;;;;;20.63;5.70;;;10.00;99.90;;;;;;5031145;28;20170;-81
2023/12/12 04:27:53;;;;;;;20.87;5.83;;;9.90;99.90;;;;;;5031048;28;20619;-81
2023/12/12 04:30:18;;;;;;;20.57;5.20;;;9.90;99.90;;;;;;5030283;28;20171;-81
2023/12/12 04:32:44;;;;;;;24.60;5.70;;;9.90;99.90;;;;;;5030947;28;20177;-81
2023/12/12 04:35:10;;;;;;;18.60;4.97;;;9.90;99.90;;;;;;5031930;28;20170;-83
2023/12/12 04:37:37;;;;;;;23.50;6.10;;;10.00;99.90;;;;;;5030530;28;20257;-82
2023/12/12 04:40:03;;;;;;;20.30;5.57;;;10.00;99.90;;;;;;5030437;28;20518;-81
2023/12/12 04:42:29;;;;;;;26.43;7.17;;;9.90;99.90;;;;;;5030748;28;20220;-80
2023/12/12 04:44:54;;;;;;;21.43;6.20;;;10.00;99.90;;;;;;5030756;28;20178;-82
2023/12/12 04:47:20;;;;;;;21.63;5.97;;;10.00;99.90;;;;;;5029436;28;20244;-81
2023/12/12 04:49:46;;;;;;;21.00;5.70;;;10.00;99.90;;;;;;5032551;28;20174;-81
2023/12/12 04:52:12;;;;;;;21.40;5.87;;;10.10;99.90;;;;;;5029198;28;20180;-81
2023/12/12 04:54:37;;;;;;;19.53;5.77;;;10.20;99.90;;;;;;5031231;28;20178;-81
2023/12/12 04:57:03;;;;;;;23.53;6.63;;;10.10;99.90;;;;;;5030788;28;20178;-82
2023/12/12 04:59:29;;;;;;;19.53;5.73;;;10.10;99.90;;;;;;5029554;28;20179;-81
2023/12/12 05:01:54;;;;;;;20.20;6.03;;;10.10;99.90;;;;;;5030310;28;20616;-81
2023/12/12 05:04:20;;;;;;;18.80;6.20;;;10.10;99.90;;;;;;5029714;28;20626;-82
2023/12/12 05:06:46;;;;;;;20.20;5.67;;;10.30;99.90;;;;;;5030573;28;20640;-83
2023/12/12 05:09:12;;;;;;;19.50;6.37;;;10.30;99.90;;;;;;5029658;28;20221;-81
2023/12/12 05:11:37;;;;;;;19.03;5.73;;;10.30;99.90;;;;;;5029316;28;20166;-81
2023/12/12 05:14:05;;;;;;;17.57;5.63;;;10.30;99.90;;;;;;5030387;28;20175;-80
2023/12/12 05:16:32;;;;;;;20.53;6.63;;;10.30;99.90;;;;;;5029731;28;20178;-81
2023/12/12 05:18:58;;;;;;;19.77;6.40;;;10.30;99.90;;;;;;5029626;28;20169;-81
2023/12/12 05:21:25;;;;;;;19.47;5.83;;;10.40;99.90;;;;;;5033786;28;20219;-82
2023/12/12 05:23:50;;;;;;;16.03;6.30;;;10.40;99.90;;;;;;5033910;28;20175;-81
2023/12/12 05:26:19;;;;;;;19.60;5.57;;;10.50;99.90;;;;;;5034253;28;20179;-82
2023/12/12 05:28:46;;;;;;;19.37;6.80;;;10.50;99.90;;;;;;5033761;28;20210;-84
2023/12/12 05:31:12;;;;;;;23.83;7.10;;;10.50;99.90;;;;;;5035251;28;20198;-82
2023/12/12 05:33:38;;;;;;;19.50;6.60;;;10.50;99.90;;;;;;5034052;28;20643;-81
2023/12/12 05:36:04;;;;;;;15.43;5.37;;;10.70;99.90;;;;;;5034145;28;20182;-82
2023/12/12 05:38:30;;;;;;;14.73;6.17;;;10.60;99.90;;;;;;5034951;28;20168;-82
2023/12/12 05:40:56;;;;;;;19.20;6.03;;;10.60;99.90;;;;;;5033612;28;20307;-85
2023/12/12 05:43:22;;;;;;;21.37;6.07;;;10.50;99.90;;;;;;5034123;28;20178;-82
2023/12/12 05:45:49;;;;;;;15.13;5.83;;;10.50;99.90;;;;;;5033427;28;20533;-82
2023/12/12 05:48:14;;;;;;;14.53;5.97;;;10.50;99.90;;;;;;5033675;28;20578;-82
2023/12/12 05:50:40;;;;;;;17.53;6.23;;;10.50;99.90;;;;;;5033423;28;20179;-82
2023/12/12 05:53:06;;;;;;;19.30;5.90;;;10.40;99.90;;;;;;5035145;28;20180;-83
2023/12/12 05:55:32;;;;;;;13.60;5.50;;;10.50;99.90;;;;;;5033342;28;20207;-82
2023/12/12 05:57:58;;;;;;;17.30;5.60;;;10.50;99.90;;;;;;5033891;28;20193;-82
2023/12/12 06:00:27;;;;;;;15.17;5.93;;;10.50;99.90;;;;;;5031749;28;20190;-83
2023/12/12 06:02:54;;;;;;;14.50;6.33;;;10.50;99.90;;;;;;5033262;28;20167;-82
2023/12/12 06:05:20;;;;;;;16.20;6.27;;;10.50;99.90;;;;;;5032562;28;20712;-82
2023/12/12 06:07:46;;;;;;;20.03;6.00;;;10.60;99.90;;;;;;5032773;28;20213;-83
2023/12/12 06:10:11;;;;;;;14.97;5.80;;;10.60;99.90;;;;;;5031884;28;20234;-81
2023/12/12 06:12:37;;;;;;;17.53;5.90;;;10.50;99.90;;;;;;5032955;28;20191;-82
2023/12/12 06:15:07;;;;;;;19.83;6.87;;;10.70;99.90;;;;;;5031922;28;20270;-82
2023/12/12 06:17:37;;;;;;;17.63;5.63;;;10.70;99.90;;;;;;5033129;28;20187;-82
2023/12/12 06:20:03;;;;;;;15.17;5.53;;;10.80;99.90;;;;;;5031268;28;20181;-82
2023/12/12 06:22:28;;;;;;;12.57;5.67;;;10.80;99.90;;;;;;5031910;28;20186;-82
2023/12/12 06:24:54;;;;;;;17.83;5.27;;;10.90;99.90;;;;;;5031882;28;20369;-82
2023/12/12 06:27:21;;;;;;;14.53;5.27;;;10.80;99.90;;;;;;5032038;28;20186;-81
2023/12/12 06:29:49;;;;;;;14.53;5.30;;;10.80;99.90;;;;;;5032234;28;20231;-82
2023/12/12 06:32:15;;;;;;;15.23;5.33;;;10.80;99.90;;;;;;5031584;28;20180;-82
2023/12/12 06:34:43;;;;;;;13.47;5.10;;;10.70;99.90;;;;;;5032054;28;20593;-82
2023/12/12 06:37:09;;;;;;;12.63;5.27;;;10.60;99.90;;;;;;5032672;28;20264;-81
2023/12/12 06:39:35;;;;;;;14.30;5.20;;;10.70;99.90;;;;;;5032983;28;20262;-82
2023/12/12 06:42:00;;;;;;;13.60;5.30;;;10.70;99.90;;;;;;5015312;28;20555;-83
2023/12/12 06:44:26;;;;;;;15.47;4.53;;;10.70;99.90;;;;;;5011451;28;20182;-82
2023/12/12 06:46:52;;;;;;;14.47;4.63;;;10.60;99.90;;;;;;5010490;28;20634;-83
2023/12/12 06:49:17;;;;;;;13.73;4.70;;;10.60;99.90;;;;;;5012439;28;20676;-81
2023/12/12 06:51:43;;;;;;;13.10;4.37;;;10.50;99.90;;;;;;5010605;28;20227;-83
2023/12/12 06:54:09;;;;;;;11.77;5.17;;;10.60;99.90;;;;;;5012148;28;20186;-85
2023/12/12 06:56:34;;;;;;;13.70;5.20;;;10.50;99.90;;;;;;5011817;28;20186;-84
2023/12/12 06:59:00;;;;;;;12.50;5.20;;;10.50;99.90;;;;;;5015639;28;20728;-83
2023/12/12 07:01:26;;;;;;;12.13;4.33;;;10.50;99.90;;;;;;5031032;28;20682;-83
2023/12/12 07:03:51;;;;;;;12.17;5.33;;;10.60;99.90;;;;;;5030314;28;20189;-81
2023/12/12 07:06:18;;;;;;;16.90;5.40;;;10.50;99.90;;;;;;5031553;28;20586;-84
2023/12/12 07:08:44;;;;;;;13.57;4.60;;;10.60;99.90;;;;;;5030077;28;20225;-85
2023/12/12 07:11:11;;;;;;;11.30;4.97;;;10.60;99.90;;;;;;5031739;28;20174;-82
2023/12/12 07:13:37;;;;;;;11.60;5.17;;;10.60;99.90;;;;;;5031398;28;20183;-83
2023/12/12 07:16:04;;;;;;;9.67;4.67;;;10.60;99.90;;;;;;5032802;28;20557;-84
2023/12/12 07:18:30;;;;;;;10.13;4.83;;;10.60;99.90;;;;;;5030223;28;20179;-84
2023/12/12 07:20:58;;;;;;;12.87;5.20;;;10.60;99.90;;;;;;5028359;28;20757;-84
2023/12/12 07:23:23;;;;;;;7.80;4.73;;;10.70;99.90;;;;;;5029710;28;20170;-83
2023/12/12 07:25:49;;;;;;;10.03;4.27;;;10.70;99.90;;;;;;5030915;28;20233;-85
2023/12/12 07:28:15;;;;;;;13.23;5.40;;;10.70;99.90;;;;;;5031440;28;20201;-83
2023/12/12 07:30:42;;;;;;;11.43;5.17;;;10.60;99.90;;;;;;5031239;28;20261;-84
2023/12/12 07:33:08;;;;;;;10.00;4.87;;;10.70;99.90;;;;;;5030512;28;20655;-86
2023/12/12 07:35:34;;;;;;;10.03;5.30;;;10.70;99.90;;;;;;5030891;28;20218;-86
2023/12/12 07:38:01;;;;;;;11.33;4.47;;;10.60;99.90;;;;;;5031488;28;20195;-84
2023/12/12 07:40:27;;;;;;;10.83;4.80;;;10.60;99.90;;;;;;5029647;28;20197;-84
2023/12/12 07:42:53;;;;;;;7.87;4.37;;;10.60;99.90;;;;;;5028967;28;20175;-84
2023/12/12 07:45:19;;;;;;;10.27;5.13;;;10.60;99.90;;;;;;5030386;28;20174;-84
2023/12/12 07:47:45;;;;;;;10.57;4.90;;;10.60;99.90;;;;;;5033989;28;20201;-84
2023/12/12 07:50:10;;;;;;;12.10;5.67;;;10.60;99.90;;;;;;5042216;28;20222;-83
2023/12/12 07:52:36;;;;;;;10.93;5.00;;;10.70;99.90;;;;;;5034573;28;20286;-84
2023/12/12 07:55:02;;;;;;;8.27;4.73;;;10.70;99.90;;;;;;5031499;28;20216;-85
2023/12/12 07:57:27;;;;;;;9.23;4.70;;;10.70;99.90;;;;;;5030945;28;20189;-83
2023/12/12 07:59:53;;;;;;;8.43;4.63;;;10.70;99.90;;;;;;5031068;28;20260;-84
2023/12/12 08:02:21;;;;;;;8.10;4.83;;;10.80;99.90;;;;;;5030507;28;20176;-84
2023/12/12 08:04:47;;;;;;;8.83;4.87;;;10.80;99.90;;;;;;5030607;28;20644;-84
2023/12/12 08:07:13;;;;;;;8.30;5.23;;;10.70;99.90;;;;;;5030686;28;20295;-84
2023/12/12 08:09:39;;;;;;;11.47;4.57;;;10.70;99.90;;;;;;5030338;28;20299;-82
2023/12/12 08:12:05;;;;;;;8.90;5.03;;;10.80;99.90;;;;;;5031335;28;20742;-84
2023/12/12 08:14:30;;;;;;;9.23;5.07;;;10.80;99.90;;;;;;5031042;28;20182;-84
2023/12/12 08:16:56;;;;;;;9.77;5.10;;;10.70;99.90;;;;;;5031316;28;20664;-87
2023/12/12 08:19:22;;;;;;;7.83;4.93;;;10.80;99.90;;;;;;5031278;28;20183;-84
2023/12/12 08:21:48;;;;;;;9.87;4.50;;;10.80;99.90;;;;;;5031527;28;20304;-83
2023/12/12 08:24:14;;;;;;;8.47;4.47;;;10.80;99.90;;;;;;5032203;28;20183;-83
2023/12/12 08:26:44;;;;;;;8.53;4.13;;;10.80;99.90;;;;;;5031037;28;20170;-84
2023/12/12 08:29:14;;;;;;;10.97;4.30;;;10.90;99.90;;;;;;5031474;28;20215;-84
2023/12/12 08:31:41;;;;;;;8.70;4.17;;;10.90;99.90;;;;;;5031679;28;20172;-85
2023/12/12 08:34:07;;;;;;;9.67;4.73;;;10.90;99.90;;;;;;5031604;28;20178;-84
2023/12/12 08:36:33;;;;;;;6.67;4.30;;;10.90;99.90;;;;;;5031338;28;20169;-83
2023/12/12 08:38:59;;;;;;;8.93;4.63;;;10.90;99.90;;;;;;5030515;28;20176;-84
2023/12/12 08:41:27;;;;;;;10.17;4.60;;;11.00;99.90;;;;;;5032540;28;20200;-85
2023/12/12 08:43:54;;;;;;;7.67;4.40;;;11.20;99.90;;;;;;5031280;28;20207;-83
2023/12/12 08:46:22;;;;;;;9.43;4.80;;;11.20;99.90;;;;;;5031282;28;20181;-84
2023/12/12 08:48:48;;;;;;;7.13;4.30;;;11.20;99.90;;;;;;5030634;28;20214;-85
2023/12/12 08:51:14;;;;;;;9.70;4.60;;;11.30;99.90;;;;;;5031185;28;20588;-88
2023/12/12 08:53:40;;;;;;;6.20;3.67;;;11.20;99.90;;;;;;5030798;28;20178;-85
2023/12/12 08:56:14;;;;;;;6.23;4.27;;;11.20;99.90;;;;;;5036006;28;20221;-84
2023/12/12 08:58:40;;;;;;;10.13;5.47;;;11.20;99.90;;;;;;5034842;28;20182;-84
2023/12/12 09:01:06;;;;;;;7.60;4.20;;;11.20;99.90;;;;;;5035773;28;20173;-83
2023/12/12 09:03:31;;;;;;;8.03;4.40;;;11.20;99.90;;;;;;5034640;28;20177;-85
2023/12/12 09:05:57;;;;;;;7.53;4.40;;;11.10;99.90;;;;;;5034843;28;20212;-85
2023/12/12 09:08:23;;;;;;;8.77;4.33;;;11.20;99.90;;;;;;5033946;28;20204;-84
2023/12/12 09:10:48;;;;;;;9.07;4.77;;;11.20;99.90;;;;;;5034782;28;20541;-85
2023/12/12 09:13:14;;;;;;;6.97;4.43;;;11.20;99.90;;;;;;5034629;28;20248;-85
2023/12/12 09:15:40;;;;;;;9.83;5.77;;;11.20;99.90;;;;;;5034421;28;20222;-84
2023/12/12 09:18:05;;;;;;;10.47;5.83;;;11.30;99.90;;;;;;5034224;28;20181;-86
2023/12/12 09:20:31;;;;;;;8.77;4.77;;;11.40;99.90;;;;;;5034576;28;20180;-85
2023/12/12 09:22:57;;;;;;;9.13;5.50;;;11.50;99.90;;;;;;5035734;28;20653;-85
2023/12/12 09:25:23;;;;;;;6.43;4.33;;;11.50;99.90;;;;;;5038494;28;20217;-84
2023/12/12 09:27:49;;;;;;;5.67;3.73;;;11.60;99.90;;;;;;5038166;28;20215;-85
2023/12/12 09:30:18;;;;;;;6.50;4.33;;;11.60;99.90;;;;;;5034369;28;20200;-84
2023/12/12 09:32:44;;;;;;;7.57;4.07;;;11.70;99.90;;;;;;5034735;28;20232;-85
2023/12/12 09:35:10;;;;;;;9.13;5.37;;;11.70;99.90;;;;;;5034819;28;20533;-85
2023/12/12 09:37:36;;;;;;;7.30;4.70;;;11.60;99.90;;;;;;5034183;28;20169;-85
2023/12/12 09:40:05;;;;;;;7.23;4.63;;;11.70;99.90;;;;;;5034360;28;20188;-85
2023/12/12 09:42:34;;;;;;;9.40;5.50;;;11.70;99.90;;;;;;5034438;28;20170;-84
2023/12/12 09:45:00;;;;;;;8.00;4.90;;;11.60;99.90;;;;;;5035681;28;20170;-83
2023/12/12 09:47:30;;;;;;;7.93;4.47;;;11.70;99.90;;;;;;5037046;28;20197;-85
2023/12/12 09:49:58;;;;;;;6.50;3.93;;;11.70;99.90;;;;;;5037375;28;20634;-85
2023/12/12 09:52:26;;;;;;;8.87;4.27;;;11.70;99.90;;;;;;5033365;28;20181;-86
2023/12/12 09:54:53;;;;;;;9.70;4.00;;;11.70;99.90;;;;;;5034117;28;20576;-85
2023/12/12 09:57:20;;;;;;;8.03;3.97;;;11.70;99.90;;;;;;5033823;28;20178;-84
2023/12/12 09:59:46;;;;;;;9.20;4.60;;;11.70;99.90;;;;;;5033442;28;20526;-87
2023/12/12 10:02:22;;;;;;;6.30;4.30;;;11.70;99.90;;;;;;5033845;28;20177;-83
2023/12/12 10:04:51;;;;;;;7.27;4.33;;;11.80;99.90;;;;;;5034559;28;20169;-83
2023/12/12 10:07:18;;;;;;;7.07;4.53;;;11.80;99.90;;;;;;5032216;28;20658;-86
2023/12/12 10:09:44;;;;;;;6.60;4.47;;;11.80;99.90;;;;;;5032993;28;20307;-86
2023/12/12 10:12:10;;;;;;;8.80;4.57;;;11.80;99.90;;;;;;5033106;28;20273;-85
2023/12/12 10:14:37;;;;;;;7.27;4.87;;;11.90;99.90;;;;;;5033601;28;20184;-84
2023/12/12 10:17:04;;;;;;;7.07;4.30;;;11.90;99.90;;;;;;5033254;28;20264;-86
2023/12/12 10:19:30;;;;;;;8.17;4.63;;;11.80;99.90;;;;;;5033311;28;20173;-83
2023/12/12 10:21:59;;;;;;;8.23;4.03;;;11.90;99.90;;;;;;5033020;28;20680;-85
2023/12/12 10:24:25;;;;;;;10.47;4.90;;;11.90;99.90;;;;;;5033287;28;20268;-86
2023/12/12 10:26:51;;;;;;;7.83;4.10;;;12.00;99.90;;;;;;5032793;28;20180;-85
2023/12/12 10:29:20;;;;;;;6.87;4.93;;;12.00;99.90;;;;;;5033293;28;20250;-89
2023/12/12 10:31:48;;;;;;;8.03;4.73;;;12.00;99.90;;;;;;5033027;28;20181;-85
2023/12/12 10:34:17;;;;;;;9.70;4.47;;;12.00;99.90;;;;;;5033084;28;20185;-84
2023/12/12 10:36:46;;;;;;;10.53;4.33;;;12.00;99.90;;;;;;5032528;28;20170;-84
2023/12/12 10:39:13;;;;;;;5.73;4.10;;;12.00;99.90;;;;;;5032812;28;20698;-86
2023/12/12 10:41:39;;;;;;;7.97;3.80;;;12.00;99.90;;;;;;5033392;28;20179;-84
2023/12/12 10:44:08;;;;;;;8.77;3.63;;;12.00;99.90;;;;;;5032311;28;20195;-83
2023/12/12 10:46:37;;;;;;;6.20;4.03;;;12.00;99.90;;;;;;5032966;28;20204;-85
2023/12/12 10:49:03;;;;;;;8.27;4.40;;;12.00;99.90;;;;;;5032777;28;20207;-85
2023/12/12 10:51:29;;;;;;;6.77;3.77;;;12.10;99.90;;;;;;5032377;28;20290;-83
2023/12/12 10:53:56;;;;;;;7.83;4.03;;;12.10;99.90;;;;;;5032710;28;20707;-86
2023/12/12 10:56:23;;;;;;;6.27;3.63;;;12.10;99.90;;;;;;5032524;28;20177;-85
2023/12/12 10:58:49;;;;;;;4.57;3.47;;;12.10;99.90;;;;;;5032240;28;20177;-85
2023/12/12 11:01:15;;;;;;;6.20;3.70;;;12.20;99.90;;;;;;5032261;28;20184;-85
2023/12/12 11:03:41;;;;;;;5.67;3.83;;;12.10;99.90;;;;;;5034263;28;20185;-84
2023/12/12 11:06:10;;;;;;;5.77;3.70;;;12.20;99.90;;;;;;5032125;28;20173;-84
2023/12/12 11:08:36;;;;;;;10.17;4.33;;;12.30;99.90;;;;;;5032445;28;20215;-84
2023/12/12 11:11:11;;;;;;;6.73;3.43;;;12.20;99.90;;;;;;5032477;28;20188;-87
2023/12/12 11:13:39;;;;;;;11.53;4.20;;;12.20;99.90;;;;;;5032076;28;20181;-85
2023/12/12 11:16:07;;;;;;;7.73;3.90;;;12.20;99.90;;;;;;5034158;28;20216;-85
2023/12/12 11:18:37;;;;;;;4.80;3.90;;;12.20;99.90;;;;;;5031106;28;20235;-85
2023/12/12 11:21:04;;;;;;;5.30;4.03;;;12.20;99.90;;;;;;5032118;28;20302;-87
2023/12/12 11:23:53;;;;;;;6.23;4.20;;;12.20;99.90;;;;;;5032141;28;20188;-85
2023/12/12 11:26:21;;;;;;;4.47;3.67;;;12.30;99.90;;;;;;5030878;28;20609;-85
2023/12/12 11:28:49;;;;;;;5.87;4.13;;;12.20;99.90;;;;;;5032625;28;20205;-88
2023/12/12 11:31:27;;;;;;;6.53;4.80;;;12.30;99.90;;;;;;5030267;28;20190;-86
2023/12/12 11:34:06;;;;;;;7.90;4.43;;;12.20;99.90;;;;;;5013577;28;20180;-86
2023/12/12 11:36:57;;;;;;;7.63;4.33;;;12.30;99.90;;;;;;5011934;28;20225;-83
2023/12/12 11:39:31;;;;;;;8.63;4.67;;;12.30;99.90;;;;;;5012986;28;20582;-85
2023/12/12 11:41:58;;;;;;;6.77;4.40;;;12.30;99.90;;;;;;5029530;28;20196;-86
2023/12/12 11:44:38;;;;;;;6.47;5.03;;;12.40;99.90;;;;;;5037708;28;20180;-86
2023/12/12 11:47:03;;;;;;;8.07;5.13;;;12.30;99.90;;;;;;5030861;28;20252;-85
2023/12/12 11:49:30;;;;;;;6.50;5.60;;;12.40;99.90;;;;;;5030904;28;20660;-85
2023/12/12 11:51:55;;;;;;;7.53;5.67;;;12.40;99.90;;;;;;5030719;28;20657;-87
2023/12/12 11:54:23;;;;;;;6.40;5.80;;;12.50;99.90;;;;;;5031794;28;20188;-85
2023/12/12 11:56:57;;;;;;;7.40;6.03;;;12.40;99.90;;;;;;5030750;28;20178;-85
2023/12/12 11:59:27;;;;;;;8.67;6.20;;;12.40;99.90;;;;;;5030565;28;20577;-87
2023/12/12 12:01:53;;;;;;;6.83;6.13;;;12.50;99.90;;;;;;5030220;28;20245;-84
2023/12/12 12:04:21;;;;;;;6.83;5.90;;;12.50;99.90;;;;;;5030637;28;20172;-83
2023/12/12 12:06:48;;;;;;;6.80;6.10;;;12.50;99.90;;;;;;5031361;28;20216;-85
2023/12/12 12:09:15;;;;;;;10.17;6.07;;;12.50;99.90;;;;;;5031046;28;20266;-83
2023/12/12 12:11:48;;;;;;;6.30;5.70;;;12.50;99.90;;;;;;5031356;28;20196;-84
2023/12/12 12:14:22;;;;;;;6.50;5.73;;;12.50;99.90;;;;;;5031811;28;20177;-86
2023/12/12 12:16:52;;;;;;;6.43;5.37;;;12.40;99.90;;;;;;5027184;28;20195;-85
2023/12/12 12:19:35;;;;;;;6.73;5.93;;;12.40;99.90;;;;;;5028334;28;20209;-86
2023/12/12 12:22:02;;;;;;;5.97;5.33;;;12.30;99.90;;;;;;5028540;28;20185;-85
2023/12/12 12:24:32;;;;;;;6.50;5.80;;;12.30;99.90;;;;;;5025992;28;20185;-85
2023/12/12 12:26:58;;;;;;;7.67;5.70;;;12.30;99.90;;;;;;5027452;28;20633;-84
2023/12/12 12:29:25;;;;;;;7.53;6.03;;;12.30;99.90;;;;;;5028916;28;20228;-87
2023/12/12 12:31:54;;;;;;;8.67;6.30;;;12.40;99.90;;;;;;5031461;28;20257;-85
2023/12/12 12:34:22;;;;;;;7.17;5.73;;;12.40;99.90;;;;;;5030240;28;20182;-85
2023/12/12 12:36:48;;;;;;;7.37;6.00;;;12.50;99.90;;;;;;5031111;28;20180;-87